N1MJ EGNT-EICK
Flight info
| Callsign | N1MJ |
|---|---|
| Flight time | N/A |
| Altitude | 37000 |
| Route | GIRLI P18 GASKO P16 RIBEL UP16 CROFT/N0434F380 Y70 KOLID UL70 PENIL M144 BAGSO DCT TISMO TISMO1G |
| Aircraft | B737/M-SDE2E3FGHIRWXY/LB1 |
Departure
| Time | 2026-05-04 22:42 |
|---|---|
| Airport | Newcastle International Airport (EGNT) |
Arrival
| Time | N/A |
|---|---|
| Airport | Cork International Airport (EICK) |
| Time | Latitude | Longitude | Altitude | Speed | Heading |
|---|---|---|---|---|---|
| 2026-05-04 22:18 | 55.03615 | -1.70931 | 267 ft | 0 kts | 274° |
| 2026-05-04 22:33 | 55.03612 | -1.70893 | 267 ft | 6 kts | 299° |
| 2026-05-04 22:34 | 55.03578 | -1.70847 | 268 ft | 1 kts | 3° |
| 2026-05-04 22:34 | 55.03589 | -1.70846 | 267 ft | 2 kts | 3° |
| 2026-05-04 22:34 | 55.03601 | -1.70824 | 267 ft | 4 kts | 73° |
| 2026-05-04 22:34 | 55.03600 | -1.70809 | 267 ft | 0 kts | 94° |
| 2026-05-04 22:37 | 55.03599 | -1.70784 | 267 ft | 4 kts | 95° |
| 2026-05-04 22:37 | 55.03595 | -1.70697 | 267 ft | 10 kts | 95° |
| 2026-05-04 22:37 | 55.03590 | -1.70552 | 267 ft | 14 kts | 84° |
| 2026-05-04 22:37 | 55.03602 | -1.70353 | 264 ft | 19 kts | 94° |
| 2026-05-04 22:38 | 55.03591 | -1.70112 | 269 ft | 20 kts | 94° |
| 2026-05-04 22:38 | 55.03580 | -1.69868 | 269 ft | 21 kts | 92° |
| 2026-05-04 22:38 | 55.03622 | -1.69622 | 270 ft | 21 kts | 65° |
| 2026-05-04 22:38 | 55.03693 | -1.69354 | 264 ft | 28 kts | 65° |
| 2026-05-04 22:39 | 55.03778 | -1.69034 | 257 ft | 30 kts | 65° |
| 2026-05-04 22:39 | 55.03863 | -1.68717 | 257 ft | 28 kts | 65° |
| 2026-05-04 22:39 | 55.03943 | -1.68421 | 255 ft | 26 kts | 64° |
| 2026-05-04 22:39 | 55.04017 | -1.68145 | 249 ft | 24 kts | 66° |
| 2026-05-04 22:40 | 55.04061 | -1.67970 | 246 ft | 23 kts | 66° |
| 2026-05-04 22:40 | 55.04148 | -1.67642 | 246 ft | 22 kts | 64° |
| 2026-05-04 22:40 | 55.04221 | -1.67493 | 246 ft | 9 kts | 82° |
| 2026-05-04 22:40 | 55.04198 | -1.67471 | 246 ft | 3 kts | 216° |
| 2026-05-04 22:41 | 55.04187 | -1.67503 | 246 ft | 3 kts | 244° |
| 2026-05-04 22:41 | 55.04170 | -1.67565 | 247 ft | 25 kts | 244° |
| 2026-05-04 22:41 | 55.03796 | -1.68967 | 260 ft | 161 kts | 245° |
| 2026-05-04 22:41 | 55.03449 | -1.70276 | 620 ft | 190 kts | 246° |
| 2026-05-04 22:42 | 55.02879 | -1.72430 | 1808 ft | 201 kts | 246° |
| 2026-05-04 22:42 | 55.02196 | -1.74748 | 2661 ft | 226 kts | 238° |
| 2026-05-04 22:42 | 55.01156 | -1.76836 | 3785 ft | 227 kts | 219° |
| 2026-05-04 22:42 | 54.99638 | -1.77913 | 4688 ft | 254 kts | 188° |
| 2026-05-04 22:43 | 54.97832 | -1.78076 | 5730 ft | 265 kts | 183° |
| 2026-05-04 22:43 | 54.95970 | -1.78163 | 6883 ft | 270 kts | 182° |
| 2026-05-04 22:43 | 54.94079 | -1.78298 | 8024 ft | 275 kts | 189° |
| 2026-05-04 22:43 | 54.92338 | -1.79617 | 9096 ft | 276 kts | 222° |
| 2026-05-04 22:44 | 54.90959 | -1.81961 | 10239 ft | 279 kts | 226° |
| 2026-05-04 22:44 | 54.89564 | -1.84436 | 10963 ft | 299 kts | 227° |
| 2026-05-04 22:44 | 54.88058 | -1.87119 | 11613 ft | 317 kts | 227° |
| 2026-05-04 22:44 | 54.86501 | -1.89871 | 12633 ft | 320 kts | 227° |
| 2026-05-04 22:45 | 54.84929 | -1.92630 | 13699 ft | 323 kts | 227° |
| 2026-05-04 22:45 | 54.81687 | -1.98269 | 15533 ft | 336 kts | 227° |
| 2026-05-04 22:45 | 54.80024 | -2.01144 | 16505 ft | 340 kts | 227° |
| 2026-05-04 22:46 | 54.78359 | -2.04014 | 17409 ft | 345 kts | 226° |
| 2026-05-04 22:46 | 54.76644 | -2.06962 | 18262 ft | 350 kts | 226° |
| 2026-05-04 22:46 | 54.74900 | -2.09956 | 19097 ft | 356 kts | 226° |
| 2026-05-04 22:46 | 54.73127 | -2.12992 | 19911 ft | 361 kts | 226° |
| 2026-05-04 22:47 | 54.71326 | -2.16072 | 20723 ft | 366 kts | 226° |
| 2026-05-04 22:47 | 54.69504 | -2.19185 | 21520 ft | 370 kts | 226° |
| 2026-05-04 22:47 | 54.67656 | -2.22335 | 22258 ft | 376 kts | 226° |
| 2026-05-04 22:47 | 54.65778 | -2.25533 | 22978 ft | 381 kts | 226° |
| 2026-05-04 22:48 | 54.63874 | -2.28772 | 23701 ft | 385 kts | 226° |
| 2026-05-04 22:48 | 54.61947 | -2.32043 | 24386 ft | 390 kts | 225° |
| 2026-05-04 22:48 | 54.60025 | -2.35302 | 25006 ft | 395 kts | 225° |
| 2026-05-04 22:48 | 54.58050 | -2.38646 | 25610 ft | 401 kts | 226° |
| 2026-05-04 22:49 | 54.56047 | -2.42032 | 26220 ft | 405 kts | 225° |
| 2026-05-04 22:49 | 54.54024 | -2.45446 | 26795 ft | 410 kts | 225° |
| 2026-05-04 22:49 | 54.51976 | -2.48901 | 27352 ft | 414 kts | 226° |
| 2026-05-04 22:49 | 54.49905 | -2.52389 | 27886 ft | 418 kts | 225° |
| 2026-05-04 22:50 | 54.47814 | -2.55903 | 28394 ft | 423 kts | 225° |
| 2026-05-04 22:50 | 54.45698 | -2.59454 | 28888 ft | 426 kts | 225° |
| 2026-05-04 22:50 | 54.43560 | -2.63037 | 29356 ft | 430 kts | 225° |
| 2026-05-04 22:50 | 54.41407 | -2.66640 | 29800 ft | 434 kts | 226° |
| 2026-05-04 22:51 | 54.39235 | -2.70268 | 30231 ft | 437 kts | 225° |
| 2026-05-04 22:51 | 54.37077 | -2.73866 | 30636 ft | 440 kts | 225° |
| 2026-05-04 22:51 | 54.34876 | -2.77532 | 31029 ft | 443 kts | 225° |
| 2026-05-04 22:51 | 54.32658 | -2.81219 | 31414 ft | 445 kts | 225° |
| 2026-05-04 22:52 | 54.30432 | -2.84915 | 31839 ft | 446 kts | 225° |
| 2026-05-04 22:52 | 54.28207 | -2.88603 | 32362 ft | 444 kts | 226° |
| 2026-05-04 22:52 | 54.25993 | -2.92267 | 32904 ft | 442 kts | 226° |
| 2026-05-04 22:52 | 54.23786 | -2.95913 | 33373 ft | 440 kts | 226° |
| 2026-05-04 22:53 | 54.21581 | -2.99550 | 33756 ft | 441 kts | 226° |
| 2026-05-04 22:53 | 54.19370 | -3.03189 | 34142 ft | 441 kts | 226° |
| 2026-05-04 22:53 | 54.17163 | -3.06819 | 34560 ft | 440 kts | 226° |
| 2026-05-04 22:53 | 54.14962 | -3.10434 | 34999 ft | 438 kts | 226° |
| 2026-05-04 22:54 | 54.12770 | -3.14029 | 35393 ft | 437 kts | 225° |
| 2026-05-04 22:54 | 54.10577 | -3.17621 | 35753 ft | 437 kts | 225° |
| 2026-05-04 22:54 | 54.08387 | -3.21200 | 36103 ft | 436 kts | 225° |
| 2026-05-04 22:54 | 54.06194 | -3.24779 | 36443 ft | 436 kts | 225° |
| 2026-05-04 22:55 | 54.04030 | -3.28306 | 36750 ft | 436 kts | 225° |
| 2026-05-04 22:55 | 54.01834 | -3.31879 | 37063 ft | 436 kts | 225° |
| 2026-05-04 22:55 | 53.99646 | -3.35430 | 37414 ft | 434 kts | 225° |
| 2026-05-04 22:55 | 53.97463 | -3.38970 | 37727 ft | 434 kts | 224° |
| 2026-05-04 22:56 | 53.95274 | -3.42518 | 37923 ft | 436 kts | 224° |
| 2026-05-04 22:56 | 53.93075 | -3.46075 | 38099 ft | 438 kts | 224° |
| 2026-05-04 22:56 | 53.88649 | -3.53218 | 38082 ft | 438 kts | 224° |
| 2026-05-04 22:57 | 53.84269 | -3.60261 | 38076 ft | 430 kts | 224° |
| 2026-05-04 22:57 | 53.79926 | -3.67228 | 38093 ft | 430 kts | 224° |
| 2026-05-04 22:58 | 53.75577 | -3.74183 | 38093 ft | 430 kts | 224° |
| 2026-05-04 22:58 | 53.71225 | -3.81123 | 38096 ft | 430 kts | 224° |
| 2026-05-04 22:59 | 53.66898 | -3.88002 | 38090 ft | 430 kts | 224° |
| 2026-05-04 22:59 | 53.64844 | -3.91650 | 38064 ft | 430 kts | 236° |
| 2026-05-04 22:59 | 53.63515 | -3.96125 | 38109 ft | 427 kts | 252° |
| 2026-05-04 23:00 | 53.62983 | -4.01033 | 38087 ft | 427 kts | 270° |
| 2026-05-04 23:00 | 53.63126 | -4.06028 | 38105 ft | 426 kts | 275° |
| 2026-05-04 23:00 | 53.63625 | -4.15991 | 38092 ft | 427 kts | 274° |
| 2026-05-04 23:01 | 53.64021 | -4.25988 | 38097 ft | 428 kts | 274° |
| 2026-05-04 23:01 | 53.64378 | -4.36003 | 38099 ft | 428 kts | 274° |
| 2026-05-04 23:02 | 53.64730 | -4.46021 | 38101 ft | 428 kts | 274° |
| 2026-05-04 23:02 | 53.65075 | -4.56038 | 38101 ft | 428 kts | 274° |
| 2026-05-04 23:03 | 53.65413 | -4.66006 | 38102 ft | 429 kts | 274° |
| 2026-05-04 23:03 | 53.65746 | -4.76069 | 38105 ft | 430 kts | 274° |
| 2026-05-04 23:04 | 53.66070 | -4.86138 | 38103 ft | 431 kts | 274° |
| 2026-05-04 23:04 | 53.66403 | -4.96225 | 38101 ft | 431 kts | 274° |
| 2026-05-04 23:05 | 53.66735 | -5.06316 | 38093 ft | 432 kts | 274° |
| 2026-05-04 23:05 | 53.67055 | -5.16429 | 38083 ft | 432 kts | 274° |
| 2026-05-04 23:06 | 53.67349 | -5.26543 | 38083 ft | 432 kts | 273° |
| 2026-05-04 23:06 | 53.67635 | -5.36655 | 38080 ft | 431 kts | 273° |
| 2026-05-04 23:07 | 53.67609 | -5.46665 | 38075 ft | 431 kts | 258° |
| 2026-05-04 23:07 | 53.66621 | -5.51431 | 38096 ft | 432 kts | 243° |
| 2026-05-04 23:07 | 53.64921 | -5.55599 | 38093 ft | 433 kts | 227° |
| 2026-05-04 23:08 | 53.60678 | -5.62803 | 38098 ft | 433 kts | 225° |
| 2026-05-04 23:08 | 53.56385 | -5.69913 | 38088 ft | 433 kts | 226° |
| 2026-05-04 23:09 | 53.52112 | -5.77076 | 38095 ft | 433 kts | 226° |
| 2026-05-04 23:09 | 53.47866 | -5.84246 | 38095 ft | 432 kts | 226° |
| 2026-05-04 23:10 | 53.43658 | -5.91352 | 38102 ft | 432 kts | 226° |
| 2026-05-04 23:10 | 53.39417 | -5.98497 | 38101 ft | 432 kts | 226° |
| 2026-05-04 23:11 | 53.35175 | -6.05620 | 38100 ft | 432 kts | 226° |
| 2026-05-04 23:11 | 53.30923 | -6.12736 | 38100 ft | 433 kts | 226° |
| 2026-05-04 23:12 | 53.26662 | -6.19848 | 38101 ft | 433 kts | 226° |
| 2026-05-04 23:12 | 53.22389 | -6.26956 | 38104 ft | 435 kts | 225° |
| 2026-05-04 23:13 | 53.18101 | -6.34070 | 38103 ft | 435 kts | 225° |
| 2026-05-04 23:13 | 53.13801 | -6.41182 | 38100 ft | 436 kts | 225° |
| 2026-05-04 23:14 | 53.09486 | -6.48293 | 38106 ft | 437 kts | 225° |
| 2026-05-04 23:14 | 53.05164 | -6.55397 | 38097 ft | 437 kts | 225° |
| 2026-05-04 23:15 | 53.00836 | -6.62493 | 38101 ft | 437 kts | 225° |
| 2026-05-04 23:15 | 52.96509 | -6.69562 | 38089 ft | 430 kts | 225° |
| 2026-05-04 23:16 | 52.94438 | -6.72937 | 38081 ft | 415 kts | 225° |
| 2026-05-04 23:16 | 52.92414 | -6.76229 | 38077 ft | 401 kts | 225° |
| 2026-05-04 23:16 | 52.90458 | -6.79406 | 38080 ft | 387 kts | 225° |
| 2026-05-04 23:16 | 52.88569 | -6.82474 | 38085 ft | 374 kts | 225° |
| 2026-05-04 23:17 | 52.86739 | -6.85444 | 38077 ft | 362 kts | 225° |
| 2026-05-04 23:17 | 52.84960 | -6.88328 | 38089 ft | 357 kts | 225° |
| 2026-05-04 23:17 | 52.81336 | -6.94193 | 38125 ft | 373 kts | 225° |
| 2026-05-04 23:18 | 52.77556 | -7.00290 | 38112 ft | 382 kts | 225° |
| 2026-05-04 23:18 | 52.73744 | -7.06421 | 38105 ft | 383 kts | 225° |
| 2026-05-04 23:19 | 52.69935 | -7.12537 | 38090 ft | 380 kts | 225° |
| 2026-05-04 23:19 | 52.66161 | -7.18575 | 38097 ft | 376 kts | 225° |
| 2026-05-04 23:20 | 52.62443 | -7.24506 | 38106 ft | 373 kts | 224° |
| 2026-05-04 23:20 | 52.58722 | -7.30431 | 38104 ft | 371 kts | 224° |
| 2026-05-04 23:21 | 52.55004 | -7.36338 | 38114 ft | 372 kts | 224° |
| 2026-05-04 23:21 | 52.51268 | -7.42261 | 38118 ft | 375 kts | 224° |